Lodgepole, Nebraska
Current Conditions -  °F | °C
As of 10:53 AM on Wednesday 28 Jan 2015 (Local Time) from KSNY Reporting Station
Clear Clear  
Wind Chill: 57°   Ceiling: Unl
Heat Index: 57°   Visibility: 10mi
Dew Point: 32°   Wind: 33mph
Humidity: 39%   Direction: 300°WNW
Pressure: 29.96"   Gusts: 48mph
Location:  41.15°N, 102.64°W
Report Text: KSNY 281753Z AUTO 30029G42KT 10SM CLR 14/00 A2996 RMK AO2 PK WND 29048/1715 SLP134 T01390000 10139 20050 58000
Loading
Personal Weather Stations






























Interactive Weather Map New forecast layout! Learn more

10-Day Weather Forecast

Advertisements
Track Severe Weather on mobile